首页
METAR-TAF:

METAR-TAF

机场 :

萨尔茨堡沃尔夫冈·阿马多伊斯·莫扎特机场

萨尔茨堡, 奥地利

纬度: 47-48N, 经度: 013-00E, 海拔: 430米

当前天气观测

该预报发布于29分钟前的00:50 UTC
风速5节,风向北转东北,在北转西北东北之间变化
温度 6°C
湿度 87%
气压 1005 hPa
能见度10公里或以上
少量云层高于1000英尺
多云层高于1600英尺

METAR: LOWS 180050Z AUTO 02005KT 330V040 9999 FEW010 BKN016 06/04 Q1005

时间: 02:19 (01:19 UTC)

预报

该预报发布于1小时和1分钟前的00:18 UTC
预报有效从18日的 00点(UTC)到 18日的 24点(UTC)
风速5节,风向北转西北
能见度10公里或以上
少量云层高于6000英尺
多云层高于25000英尺
短暂存在
从 18日的 00点(UTC)到 18日的 07点(UTC)
风速2节,风向多变
能見度: 4000
多云层高于400英尺
轻雾
成为
从 18日的 16点(UTC)到 18日的 18点(UTC)
风速4节,风向南转南东

TAF: LOWS 180018Z 1800/1824 33005KT 9999 FEW060 BKN250 TX08/1800Z TN03/1824Z TEMPO 1800/1807 VRB02KT 4000 BR BKN004 BECMG 1816/1818 15004KT

超过4000个机场的气象观测和天气预报(METAR&TAF报告)。

可查询的气象台以黄色和红色小点在地图上表示。

将鼠标移到小点上方,可查看气象台名称。

然后点击查看天气观测和预报。

如需切换地图:点击带黑十字的绿色按钮放大地图;点击带横线的绿色按钮缩小地图;或者点击绿色箭头查看邻近地区的地图。


METAR-TAF: